Time;durP1;ratioP1;P1;durP2;ratioP2;P2;SDS_P1;SDS_P2;PMS_P1;PMS_P2;Temp;Humidity;BMP_temperature;BMP_pressure;BME280_temperature;BME280_humidity;BME280_pressure;Samples;Min_cycle;Max_cycle;Signal;HPM_P1;HPM_P2
2023/02/27 00:11:26;;;;;;;7.57;3.17;;;19.40;61.30;;;;;;4740756;29;87914;-85
2023/02/27 00:13:52;;;;;;;7.63;3.35;;;19.40;61.50;;;;;;4742737;29;87683;-86
2023/02/27 00:16:17;;;;;;;8.50;3.28;;;19.30;61.30;;;;;;4742648;29;87459;-86
2023/02/27 00:18:43;;;;;;;5.30;3.08;;;19.30;61.30;;;;;;4741475;29;89232;-86
2023/02/27 00:21:09;;;;;;;8.23;3.15;;;19.30;61.20;;;;;;4742049;29;88477;-85
2023/02/27 00:23:34;;;;;;;6.47;2.92;;;19.30;61.30;;;;;;4742260;29;87355;-86
2023/02/27 00:26:00;;;;;;;7.28;3.47;;;19.20;61.10;;;;;;4747264;29;91037;-86
2023/02/27 00:28:27;;;;;;;6.43;3.15;;;19.20;61.40;;;;;;4741298;29;87472;-86
2023/02/27 00:30:53;;;;;;;5.15;3.05;;;19.20;61.20;;;;;;4742402;29;87704;-86
2023/02/27 00:33:18;;;;;;;6.30;3.22;;;19.20;61.20;;;;;;4742811;29;88019;-85
2023/02/27 00:35:44;;;;;;;7.78;3.10;;;19.20;61.00;;;;;;4741802;29;87133;-85
2023/02/27 00:55:08;;;;;;;6.05;2.88;;;19.10;61.10;;;;;;4742204;29;91512;-86
2023/02/27 00:57:34;;;;;;;6.30;3.13;;;19.00;61.10;;;;;;4742530;29;87584;-87
2023/02/27 00:59:59;;;;;;;7.00;3.17;;;19.00;61.00;;;;;;4740731;29;87142;-86
2023/02/27 01:02:25;;;;;;;5.45;2.92;;;19.00;61.00;;;;;;4740348;29;89264;-86
2023/02/27 01:04:51;;;;;;;6.90;3.28;;;19.00;61.00;;;;;;4742411;29;89238;-86
2023/02/27 01:20:44;;;;;;;4.78;2.45;;;18.90;61.10;;;;;;4740849;29;87371;-86
2023/02/27 01:23:09;;;;;;;5.50;2.90;;;18.90;61.00;;;;;;4741014;29;87449;-86
2023/02/27 01:25:35;;;;;;;5.72;2.90;;;18.90;61.00;;;;;;4741653;29;87808;-86
2023/02/27 01:28:01;;;;;;;6.40;3.03;;;18.90;61.00;;;;;;4740457;29;88353;-86
2023/02/27 01:50:45;;;;;;;5.22;2.83;;;18.70;60.90;;;;;;4743893;29;87511;-86
2023/02/27 01:53:12;;;;;;;5.35;2.72;;;18.70;61.10;;;;;;4743511;29;86798;-86
2023/02/27 01:55:38;;;;;;;4.90;2.58;;;18.70;61.10;;;;;;4742626;29;87015;-86
2023/02/27 01:58:06;;;;;;;4.78;2.20;;;18.70;61.10;;;;;;4744909;29;87025;-86
2023/02/27 02:00:32;;;;;;;5.53;2.30;;;18.70;61.10;;;;;;4744144;29;90476;-86
2023/02/27 02:03:36;;;;;;;4.75;2.92;;;18.70;60.90;;;;;;4744707;29;88419;-86
2023/02/27 02:06:04;;;;;;;5.63;2.58;;;18.70;60.80;;;;;;4744402;29;87054;-85
2023/02/27 02:08:34;;;;;;;5.32;2.80;;;18.70;61.10;;;;;;4742846;29;88189;-86
2023/02/27 02:21:27;;;;;;;4.93;3.50;;;18.60;60.90;;;;;;4744404;29;86582;-86
2023/02/27 02:24:14;;;;;;;4.07;2.33;;;18.60;60.90;;;;;;4743200;29;87260;-86
2023/02/27 02:26:52;;;;;;;4.75;2.63;;;18.60;60.90;;;;;;4744088;29;89249;-86
2023/02/27 02:29:29;;;;;;;4.63;2.17;;;18.60;61.00;;;;;;4743277;29;88038;-86
2023/02/27 02:45:50;;;;;;;4.18;2.35;;;18.50;60.70;;;;;;4742740;29;89384;-86
2023/02/27 02:48:25;;;;;;;4.70;2.58;;;18.50;60.80;;;;;;4741813;29;88713;-86
2023/02/27 02:50:53;;;;;;;4.95;2.47;;;18.40;60.70;;;;;;4744905;29;88512;-86
2023/02/27 02:53:44;;;;;;;4.03;2.37;;;18.50;60.70;;;;;;4743016;29;87299;-86
2023/02/27 03:03:21;;;;;;;4.05;2.35;;;18.40;60.60;;;;;;4742679;29;87701;-86
2023/02/27 03:06:13;;;;;;;4.15;2.08;;;18.40;60.60;;;;;;4743439;29;87494;-86
2023/02/27 03:08:48;;;;;;;4.07;2.40;;;18.40;60.50;;;;;;4678591;30;87234;-86
2023/02/27 03:11:14;;;;;;;3.95;2.13;;;18.40;60.70;;;;;;4678918;30;87974;-86
2023/02/27 03:23:47;;;;;;;3.75;2.38;;;18.40;60.50;;;;;;4677935;30;87303;-86
2023/02/27 03:26:17;;;;;;;4.25;1.92;;;18.30;60.50;;;;;;4677827;30;88080;-86
2023/02/27 03:28:59;;;;;;;4.72;2.17;;;18.30;60.60;;;;;;4678067;30;90056;-86
2023/02/27 03:31:29;;;;;;;2.97;2.08;;;18.30;60.60;;;;;;4678409;30;87385;-86
2023/02/27 03:33:58;;;;;;;;;;;18.30;60.70;;;;;;4678571;30;89802;-86
2023/02/27 03:36:36;;;;;;;4.70;2.40;;;18.30;60.50;;;;;;4680485;30;87901;-85
2023/02/27 03:39:04;;;;;;;4.07;2.17;;;18.30;60.40;;;;;;4655261;30;87287;-86
2023/02/27 03:42:13;;;;;;;3.88;2.17;;;18.30;60.50;;;;;;4678200;30;87588;-86
2023/02/27 03:44:49;;;;;;;3.75;1.98;;;18.30;60.40;;;;;;4691408;29;89379;-85
2023/02/27 03:47:15;;;;;;;3.60;1.95;;;18.30;60.50;;;;;;4734568;29;87833;-86
2023/02/27 03:49:41;;;;;;;3.50;1.90;;;18.20;60.30;;;;;;4747784;29;87653;-86
2023/02/27 03:52:06;;;;;;;4.13;2.25;;;18.20;60.20;;;;;;4756392;29;90474;-86
2023/02/27 03:54:46;;;;;;;5.00;2.08;;;18.20;60.30;;;;;;4742409;29;89077;-86
2023/02/27 03:57:14;;;;;;;3.58;2.05;;;18.20;60.30;;;;;;4742175;29;89358;-86
2023/02/27 03:59:40;;;;;;;4.88;2.25;;;18.20;60.40;;;;;;4741478;29;86994;-85
2023/02/27 04:02:06;;;;;;;4.22;2.28;;;18.20;60.40;;;;;;4743383;29;87518;-86
2023/02/27 04:07:54;;;;;;;3.25;1.55;;;18.20;60.40;;;;;;4740766;29;87532;-86
2023/02/27 04:10:40;;;;;;;3.28;1.77;;;18.20;60.30;;;;;;4742407;29;87405;-86
2023/02/27 04:13:51;;;;;;;3.25;2.20;;;18.20;60.30;;;;;;4742408;29;87478;-86
2023/02/27 04:16:31;;;;;;;4.90;2.35;;;18.10;60.30;;;;;;4741845;29;88723;-86
2023/02/27 04:19:15;;;;;;;4.18;2.10;;;18.10;60.20;;;;;;4741270;29;88318;-86
2023/02/27 04:22:02;;;;;;;4.85;2.10;;;18.10;60.20;;;;;;4742687;29;88352;-86
2023/02/27 04:24:42;;;;;;;3.15;2.03;;;18.10;60.30;;;;;;4741451;29;91210;-86
2023/02/27 04:30:37;;;;;;;3.97;2.03;;;18.10;60.20;;;;;;4742655;29;87496;-86
2023/02/27 04:33:24;;;;;;;3.15;1.77;;;18.10;60.20;;;;;;4742185;29;87368;-86
2023/02/27 04:35:59;;;;;;;3.60;2.17;;;18.10;60.30;;;;;;4743264;29;87393;-86
2023/02/27 04:38:46;;;;;;;2.78;1.60;;;18.10;60.10;;;;;;4741858;29;88838;-86
2023/02/27 04:41:27;;;;;;;3.20;1.95;;;18.10;60.20;;;;;;4743361;29;88510;-86
2023/02/27 04:43:55;;;;;;;3.38;1.65;;;18.00;60.10;;;;;;4747363;29;87851;-86
2023/02/27 04:46:25;;;;;;;3.55;2.15;;;18.00;60.30;;;;;;4742883;29;87439;-86
2023/02/27 04:49:07;;;;;;;3.58;2.20;;;18.00;60.30;;;;;;4741050;29;89830;-85
2023/02/27 04:51:44;;;;;;;2.50;1.52;;;18.00;60.10;;;;;;4740842;29;88796;-86
2023/02/27 04:54:14;;;;;;;4.82;2.00;;;18.00;60.10;;;;;;4738207;29;87456;-85
2023/02/27 04:56:48;;;;;;;2.33;1.58;;;18.00;60.00;;;;;;4737901;29;87509;-85
2023/02/27 04:59:24;;;;;;;3.80;2.03;;;18.00;60.00;;;;;;4737700;29;89015;-86
2023/02/27 05:01:58;;;;;;;3.65;1.73;;;18.00;60.10;;;;;;4739580;29;88476;-86
2023/02/27 05:04:26;;;;;;;2.97;1.95;;;17.90;60.10;;;;;;4741963;29;86850;-86
2023/02/27 05:06:55;;;;;;;4.23;2.00;;;18.00;60.10;;;;;;4742396;29;86532;-86
2023/02/27 05:09:27;;;;;;;3.95;1.92;;;18.00;60.20;;;;;;4742976;29;88386;-86
2023/02/27 05:12:04;;;;;;;2.20;1.60;;;17.90;60.20;;;;;;4757693;29;91205;-86
2023/02/27 05:14:40;;;;;;;3.78;1.67;;;17.90;60.20;;;;;;4744688;29;88500;-84
2023/02/27 05:17:33;;;;;;;3.83;1.70;;;17.90;60.00;;;;;;4745601;29;87084;-84
2023/02/27 05:20:00;;;;;;;8.90;2.47;;;17.90;59.70;;;;;;4742770;29;91017;-85
2023/02/27 05:22:52;;;;;;;5.20;2.42;;;18.00;59.10;;;;;;4744910;29;87421;-84
2023/02/27 05:25:43;;;;;;;8.77;2.30;;;18.00;58.80;;;;;;4744607;29;87243;-85
2023/02/27 05:32:00;;;;;;;7.10;2.47;;;18.30;59.50;;;;;;4727334;29;87230;-85
2023/02/27 05:34:53;;;;;;;6.93;2.58;;;18.50;59.50;;;;;;4743296;29;89383;-86
2023/02/27 05:37:25;;;;;;;6.57;3.38;;;18.60;59.50;;;;;;4744856;29;87697;-86
2023/02/27 05:39:52;;;;;;;4.30;2.92;;;18.70;59.70;;;;;;4744545;29;87513;-85
2023/02/27 05:49:10;;;;;;;7.70;3.15;;;18.80;59.00;;;;;;4742496;29;86890;-86
2023/02/27 05:51:37;;;;;;;6.28;2.70;;;18.80;58.90;;;;;;4744176;29;87176;-86
2023/02/27 05:54:12;;;;;;;5.82;2.95;;;18.80;59.00;;;;;;4743317;29;88588;-87
2023/02/27 05:56:42;;;;;;;5.60;2.78;;;18.80;59.00;;;;;;4743794;29;88834;-86
2023/02/27 05:59:17;;;;;;;6.82;2.80;;;18.80;59.00;;;;;;4744155;29;87703;-86
2023/02/27 06:01:43;;;;;;;4.07;2.53;;;18.70;59.10;;;;;;4744042;29;87185;-86
2023/02/27 06:04:11;;;;;;;4.85;3.10;;;18.70;59.00;;;;;;4757491;29;90880;-86
2023/02/27 06:06:39;;;;;;;4.80;2.83;;;18.70;59.30;;;;;;4745047;29;88408;-86
2023/02/27 06:09:05;;;;;;;3.72;2.63;;;18.60;59.20;;;;;;4748731;29;87969;-86
2023/02/27 06:18:15;;;;;;;8.48;3.47;;;18.50;59.30;;;;;;4742779;29;86918;-86
2023/02/27 06:20:42;;;;;;;4.53;2.47;;;18.50;59.40;;;;;;4742348;29;86948;-85
2023/02/27 06:23:09;;;;;;;5.60;2.58;;;18.60;59.20;;;;;;4734050;29;89580;-86
2023/02/27 06:25:35;;;;;;;6.50;3.15;;;18.60;59.00;;;;;;4743300;29;89226;-86
2023/02/27 06:28:00;;;;;;;6.40;2.47;;;18.70;59.40;;;;;;4742624;29;91561;-85
2023/02/27 06:30:27;;;;;;;4.55;2.30;;;18.80;59.00;;;;;;4745719;29;86888;-85
2023/02/27 06:32:52;;;;;;;6.05;2.60;;;18.80;58.90;;;;;;4756402;29;89380;-85
2023/02/27 06:35:18;;;;;;;4.00;2.58;;;18.90;58.80;;;;;;4743580;29;90037;-85
2023/02/27 06:37:44;;;;;;;7.63;2.35;;;19.00;58.70;;;;;;4743215;29;88705;-85
2023/02/27 06:40:10;;;;;;;4.38;2.22;;;19.00;58.50;;;;;;4743818;29;87338;-85
2023/02/27 06:42:37;;;;;;;4.85;2.88;;;19.10;58.30;;;;;;4744120;29;87512;-85
2023/02/27 06:45:04;;;;;;;5.93;2.03;;;19.20;58.10;;;;;;4742884;29;88631;-85
2023/02/27 06:54:14;;;;;;;7.53;2.30;;;19.30;57.70;;;;;;4742806;29;86747;-85
2023/02/27 06:56:40;;;;;;;6.07;2.70;;;19.20;57.70;;;;;;4743155;29;87782;-85
2023/02/27 06:59:05;;;;;;;3.47;2.20;;;19.20;57.60;;;;;;4743275;29;88383;-84
2023/02/27 07:01:31;;;;;;;4.20;2.40;;;19.20;57.50;;;;;;4742869;29;87799;-84
2023/02/27 07:10:45;;;;;;;3.42;1.92;;;19.30;57.10;;;;;;4748992;29;87335;-84
2023/02/27 07:13:12;;;;;;;5.75;2.50;;;19.30;57.40;;;;;;4743908;29;86926;-84
2023/02/27 07:15:38;;;;;;;10.70;3.17;;;19.30;57.70;;;;;;4743629;29;87540;-83
2023/02/27 07:18:04;;;;;;;11.73;3.83;;;19.30;57.00;;;;;;4743969;29;87572;-84
2023/02/27 07:20:29;;;;;;;7.70;2.92;;;19.50;56.60;;;;;;4747245;29;89833;-84
2023/02/27 07:22:55;;;;;;;8.77;2.90;;;19.60;56.30;;;;;;4747718;29;87274;-84
2023/02/27 07:25:20;;;;;;;6.40;2.55;;;19.60;55.60;;;;;;4740452;29;91000;-84
2023/02/27 07:27:48;;;;;;;7.75;3.00;;;19.60;56.10;;;;;;4742694;29;89132;-84
2023/02/27 07:30:14;;;;;;;7.38;2.75;;;19.70;56.30;;;;;;4743044;29;88783;-84
2023/02/27 07:32:40;;;;;;;10.30;2.88;;;19.70;56.00;;;;;;4742630;29;87602;-84
2023/02/27 07:52:13;;;;;;;10.30;3.33;;;19.60;56.20;;;;;;4742249;29;91801;-83
2023/02/27 07:54:39;;;;;;;7.07;2.53;;;19.50;56.30;;;;;;4742681;29;87899;-83
2023/02/27 07:57:05;;;;;;;8.25;3.03;;;19.50;56.30;;;;;;4740261;29;88026;-83
2023/02/27 07:59:31;;;;;;;5.95;3.00;;;19.50;56.40;;;;;;4742245;29;87448;-83
2023/02/27 08:01:57;;;;;;;9.02;2.97;;;19.50;56.60;;;;;;4741119;29;88861;-84
2023/02/27 08:04:22;;;;;;;11.02;3.65;;;19.60;56.50;;;;;;4742379;29;88246;-84
2023/02/27 08:17:47;;;;;;;6.07;2.38;;;19.80;56.20;;;;;;4741383;29;86921;-84
2023/02/27 08:20:13;;;;;;;7.60;3.47;;;19.70;56.00;;;;;;4741864;29;87253;-85
2023/02/27 08:22:40;;;;;;;7.38;2.92;;;19.70;56.10;;;;;;4743265;29;87383;-85
2023/02/27 08:25:09;;;;;;;8.98;3.25;;;19.70;56.30;;;;;;4740482;29;89101;-83
2023/02/27 08:27:35;;;;;;;7.85;2.88;;;19.70;56.20;;;;;;4742234;29;90283;-84
2023/02/27 08:30:01;;;;;;;5.95;2.83;;;19.80;56.40;;;;;;4742830;29;87378;-84
2023/02/27 08:32:32;;;;;;;5.22;2.15;;;19.70;56.40;;;;;;4741651;29;87046;-85
2023/02/27 08:34:58;;;;;;;8.38;3.22;;;19.70;56.40;;;;;;4741830;29;87837;-85
2023/02/27 08:37:23;;;;;;;8.60;3.47;;;19.70;56.50;;;;;;4747273;29;89648;-85
2023/02/27 08:39:49;;;;;;;7.93;2.92;;;19.70;56.50;;;;;;4741747;29;87470;-85
2023/02/27 08:42:15;;;;;;;8.38;3.10;;;19.70;56.50;;;;;;4741816;29;86587;-85
2023/02/27 08:44:41;;;;;;;6.22;2.65;;;19.60;56.70;;;;;;4741638;29;87954;-84
2023/02/27 08:47:06;;;;;;;9.88;3.45;;;19.60;56.70;;;;;;4740273;29;87581;-84
2023/02/27 08:52:55;;;;;;;8.85;2.95;;;19.70;56.70;;;;;;4741057;29;87430;-85
2023/02/27 08:55:21;;;;;;;6.15;2.92;;;19.70;56.70;;;;;;4741790;29;88162;-84
2023/02/27 08:57:47;;;;;;;5.40;2.00;;;19.70;56.90;;;;;;4743726;29;88777;-86
2023/02/27 09:00:13;;;;;;;7.45;2.88;;;19.70;56.80;;;;;;4741334;29;86922;-85
2023/02/27 09:02:39;;;;;;;10.15;2.90;;;19.70;56.80;;;;;;4740758;29;87571;-85
2023/02/27 09:21:57;;;;;;;5.75;2.70;;;19.50;57.20;;;;;;4741736;29;92280;-85
2023/02/27 09:24:23;;;;;;;5.73;2.60;;;19.50;57.40;;;;;;4741748;29;87244;-85
2023/02/27 09:26:50;;;;;;;7.60;2.63;;;19.50;57.40;;;;;;4747295;29;89906;-85
2023/02/27 09:29:16;;;;;;;7.55;2.70;;;19.50;57.30;;;;;;4747714;29;88966;-85
2023/02/27 09:31:41;;;;;;;6.97;2.55;;;19.40;57.30;;;;;;4741111;29;87406;-85
2023/02/27 09:40:52;;;;;;;8.50;2.50;;;19.40;57.60;;;;;;4741887;29;87203;-85
2023/02/27 09:43:26;;;;;;;6.63;2.70;;;19.40;57.70;;;;;;4747098;29;89779;-84
2023/02/27 09:45:54;;;;;;;11.55;2.95;;;19.50;57.30;;;;;;4747667;29;88501;-85
2023/02/27 09:48:23;;;;;;;6.15;2.45;;;19.50;57.40;;;;;;4739769;29;90530;-85
2023/02/27 09:50:52;;;;;;;9.38;2.92;;;19.40;57.40;;;;;;4740731;29;88568;-85
2023/02/27 09:53:25;;;;;;;5.90;2.42;;;19.40;57.50;;;;;;4746786;29;87842;-85
2023/02/27 09:55:53;;;;;;;5.30;2.20;;;19.40;57.60;;;;;;4754033;29;87640;-86
2023/02/27 09:58:43;;;;;;;4.20;2.40;;;19.40;57.60;;;;;;4743259;29;87892;-86
2023/02/27 10:40:49;;;;;;;8.60;2.45;;;19.30;58.70;;;;;;4733720;29;91135;-84
2023/02/27 10:43:17;;;;;;;8.45;2.30;;;19.30;58.50;;;;;;4742478;29;88565;-84
2023/02/27 10:45:43;;;;;;;8.70;2.67;;;19.30;58.00;;;;;;4744320;29;88343;-85
2023/02/27 10:48:10;;;;;;;7.97;2.65;;;19.30;58.30;;;;;;4742819;29;88563;-85
2023/02/27 10:57:41;;;;;;;4.95;2.38;;;19.30;59.00;;;;;;4743708;29;86912;-84
2023/02/27 11:00:24;;;;;;;6.55;2.65;;;19.30;59.20;;;;;;4742664;29;87601;-84
2023/02/27 11:02:53;;;;;;;5.75;1.80;;;19.30;59.40;;;;;;4743239;29;87427;-84
2023/02/27 11:05:32;;;;;;;7.45;2.50;;;19.30;59.60;;;;;;4756879;29;91264;-84
2023/02/27 11:08:22;;;;;;;7.57;3.03;;;19.30;59.70;;;;;;4741485;29;89351;-85
2023/02/27 11:11:09;;;;;;;5.68;2.15;;;19.30;59.50;;;;;;4742921;29;87365;-85
2023/02/27 11:13:37;;;;;;;9.35;2.80;;;19.30;59.90;;;;;;4741913;29;88186;-84
2023/02/27 11:16:05;;;;;;;5.65;2.63;;;19.30;60.10;;;;;;4755337;29;90878;-84
2023/02/27 11:18:37;;;;;;;6.25;2.28;;;19.40;59.80;;;;;;4743520;29;89390;-84
2023/02/27 11:21:22;;;;;;;9.25;2.35;;;19.40;59.80;;;;;;4741559;29;87015;-85
2023/02/27 11:24:00;;;;;;;5.63;2.22;;;19.50;59.90;;;;;;4743019;29;87562;-84
2023/02/27 11:26:35;;;;;;;5.88;2.30;;;19.40;59.80;;;;;;4742641;29;88949;-84
2023/02/27 11:29:19;;;;;;;5.45;2.30;;;19.40;59.20;;;;;;4742771;29;88126;-85
2023/02/27 11:31:56;;;;;;;6.90;2.90;;;19.40;59.30;;;;;;4742852;29;87370;-84
2023/02/27 11:34:31;;;;;;;8.02;2.10;;;19.50;59.30;;;;;;4741235;29;90651;-84
2023/02/27 11:37:07;;;;;;;6.30;1.88;;;19.50;59.00;;;;;;4744840;29;88213;-84
2023/02/27 11:39:47;;;;;;;7.05;2.38;;;19.60;58.70;;;;;;4742103;29;92586;-84
2023/02/27 11:42:29;;;;;;;5.90;2.30;;;19.60;58.40;;;;;;4741567;29;88582;-84
2023/02/27 11:45:07;;;;;;;5.30;2.22;;;19.60;58.70;;;;;;4755091;29;90084;-84
2023/02/27 11:47:36;;;;;;;6.30;1.98;;;19.50;58.80;;;;;;4742751;29;87356;-84
2023/02/27 11:50:09;;;;;;;6.35;2.00;;;19.50;58.70;;;;;;4741711;29;88506;-84
2023/02/27 11:52:56;;;;;;;5.90;2.10;;;19.50;58.40;;;;;;4741728;29;87273;-84
2023/02/27 11:55:29;;;;;;;4.93;2.13;;;19.60;58.30;;;;;;4742861;29;87270;-84
2023/02/27 11:58:20;;;;;;;4.57;2.35;;;19.50;58.40;;;;;;4742191;29;88605;-83
2023/02/27 12:01:11;;;;;;;5.47;1.73;;;19.50;58.10;;;;;;4747855;29;92181;-83
2023/02/27 12:04:05;;;;;;;4.20;1.60;;;19.50;58.40;;;;;;4748646;29;87623;-83
2023/02/27 12:06:42;;;;;;;6.53;1.88;;;19.40;58.00;;;;;;4748512;29;92356;-83
2023/02/27 12:09:33;;;;;;;7.60;2.00;;;19.40;57.70;;;;;;4746718;29;88869;-85
2023/02/27 12:12:04;;;;;;;6.15;1.80;;;19.50;57.90;;;;;;4711346;29;88925;-84
2023/02/27 12:14:46;;;;;;;5.63;1.90;;;19.50;57.80;;;;;;4697113;29;87704;-84
2023/02/27 12:17:19;;;;;;;9.85;2.17;;;19.50;57.80;;;;;;4711976;29;87596;-83
2023/02/27 12:20:12;;;;;;;6.82;1.90;;;19.50;57.70;;;;;;4696867;29;91217;-83
2023/02/27 12:22:45;;;;;;;9.60;2.50;;;19.50;57.30;;;;;;4712555;29;87633;-85
2023/02/27 12:25:37;;;;;;;6.97;2.30;;;19.60;57.30;;;;;;4712063;29;87177;-84
2023/02/27 12:28:25;;;;;;;6.55;1.88;;;19.60;57.20;;;;;;4712390;29;87699;-85
2023/02/27 12:30:53;;;;;;;6.47;2.25;;;19.60;56.60;;;;;;4714913;29;88014;-86
2023/02/27 12:33:43;;;;;;;8.35;1.60;;;19.70;56.50;;;;;;4730161;29;88857;-83
2023/02/27 12:36:12;;;;;;;7.88;2.17;;;19.80;56.40;;;;;;4712733;29;88083;-85
2023/02/27 12:38:37;;;;;;;10.55;2.55;;;19.80;55.80;;;;;;4711171;29;87089;-83
2023/02/27 12:41:07;;;;;;;15.85;2.65;;;19.80;54.40;;;;;;4690003;29;90527;-84
2023/02/27 12:44:02;;;;;;;6.68;1.70;;;19.80;55.20;;;;;;4712203;29;88053;-84
2023/02/27 12:46:53;;;;;;;10.18;1.95;;;19.80;55.30;;;;;;4700281;29;87162;-84
2023/02/27 12:49:57;;;;;;;7.97;2.28;;;19.70;55.30;;;;;;4735541;29;87843;-84
2023/02/27 12:52:35;;;;;;;4.65;1.95;;;19.60;55.00;;;;;;4737940;29;87534;-84
2023/02/27 12:55:16;;;;;;;7.32;2.20;;;19.70;55.50;;;;;;4736573;29;88455;-84
2023/02/27 12:57:51;;;;;;;5.30;2.53;;;19.60;55.40;;;;;;4753267;29;87385;-84
2023/02/27 13:00:23;;;;;;;5.65;1.90;;;19.60;55.60;;;;;;4736991;29;87475;-84
2023/02/27 13:03:04;;;;;;;8.80;2.08;;;19.60;55.70;;;;;;4735833;29;88721;-83
2023/02/27 13:06:01;;;;;;;5.13;1.90;;;19.70;55.50;;;;;;4738971;29;89217;-84
2023/02/27 13:08:49;;;;;;;6.20;1.83;;;19.60;55.40;;;;;;4741422;29;87623;-84
2023/02/27 13:11:50;;;;;;;5.43;1.85;;;19.60;55.50;;;;;;4740677;29;87503;-84
2023/02/27 13:14:24;;;;;;;4.63;1.75;;;19.50;55.40;;;;;;4666178;30;88703;-84
2023/02/27 13:17:00;;;;;;;5.70;2.00;;;19.50;55.70;;;;;;4668592;30;87893;-83
2023/02/27 13:19:33;;;;;;;4.55;1.80;;;19.50;56.00;;;;;;4652968;30;87219;-83
2023/02/27 13:22:40;;;;;;;6.00;1.90;;;19.60;55.90;;;;;;4667706;30;87206;-84
2023/02/27 13:25:13;;;;;;;4.85;1.77;;;19.60;55.90;;;;;;4667998;30;93339;-84
2023/02/27 13:27:47;;;;;;;7.18;1.75;;;19.70;55.50;;;;;;4669231;30;88821;-84
2023/02/27 13:30:13;;;;;;;5.10;2.13;;;19.80;55.40;;;;;;4669213;30;88283;-86
2023/02/27 13:36:12;;;;;;;5.45;1.58;;;19.80;55.50;;;;;;4672743;30;87492;-85
2023/02/27 13:38:49;;;;;;;5.70;1.55;;;19.80;55.30;;;;;;4671315;30;87936;-83
2023/02/27 13:41:23;;;;;;;3.45;1.60;;;19.90;55.30;;;;;;4648744;30;88276;-83
2023/02/27 13:43:52;;;;;;;5.07;1.70;;;19.90;55.30;;;;;;4670965;30;88489;-83
2023/02/27 13:46:31;;;;;;;4.22;1.60;;;19.90;55.30;;;;;;4671347;30;87320;-83
2023/02/27 13:49:10;;;;;;;5.57;1.88;;;19.90;55.40;;;;;;4657182;30;90091;-84
2023/02/27 13:51:39;;;;;;;3.47;1.63;;;19.80;55.80;;;;;;4722079;29;87049;-84
2023/02/27 14:04:41;;;;;;;6.13;1.63;;;19.70;56.20;;;;;;4743279;29;87238;-86
2023/02/27 14:07:15;;;;;;;6.15;2.25;;;19.70;56.20;;;;;;4743005;29;87318;-86
2023/02/27 14:09:43;;;;;;;10.40;2.25;;;19.60;56.30;;;;;;4743869;29;91413;-86
2023/02/27 14:12:27;;;;;;;10.65;1.90;;;19.70;56.30;;;;;;4742738;29;88545;-86
2023/02/27 14:15:35;;;;;;;4.63;1.50;;;19.80;56.00;;;;;;4743701;29;87435;-86
2023/02/27 14:18:03;;;;;;;7.32;2.13;;;19.90;55.50;;;;;;4744674;29;86973;-88
2023/02/27 14:20:31;;;;;;;8.10;2.40;;;20.00;55.60;;;;;;4742809;29;90486;-88
2023/02/27 14:23:15;;;;;;;4.72;1.65;;;20.10;55.50;;;;;;4744592;29;88430;-87
2023/02/27 14:29:05;;;;;;;5.93;1.92;;;20.30;55.40;;;;;;4744047;29;87409;-88
2023/02/27 14:31:33;;;;;;;4.43;1.75;;;20.30;55.10;;;;;;4758497;29;92232;-87
2023/02/27 14:34:04;;;;;;;4.63;1.33;;;20.30;55.10;;;;;;4743347;29;88435;-87
2023/02/27 14:36:35;;;;;;;5.40;2.00;;;20.30;55.20;;;;;;4745507;29;87306;-88
2023/02/27 14:39:03;;;;;;;6.47;2.17;;;20.30;55.30;;;;;;4758370;29;90425;-87
2023/02/27 14:41:54;;;;;;;4.00;1.73;;;20.30;56.00;;;;;;4749347;29;92303;-87
2023/02/27 14:44:22;;;;;;;4.55;1.35;;;20.30;56.20;;;;;;4750721;29;91106;-87
2023/02/27 14:46:49;;;;;;;6.35;1.90;;;20.30;56.50;;;;;;4743688;29;87385;-87
2023/02/27 14:56:18;;;;;;;35.40;9.05;;;20.40;54.20;;;;;;4743490;29;87772;-86
2023/02/27 14:58:48;;;;;;;48.55;11.48;;;20.40;51.10;;;;;;4743397;29;87395;-86
2023/02/27 15:01:14;;;;;;;33.88;9.40;;;20.40;49.90;;;;;;4743049;29;87469;-87
2023/02/27 15:03:47;;;;;;;31.67;8.00;;;20.40;51.60;;;;;;4744553;29;87493;-87
2023/02/27 15:06:40;;;;;;;33.55;7.70;;;20.40;52.90;;;;;;4749197;29;91455;-87
2023/02/27 15:09:06;;;;;;;33.42;9.57;;;20.40;53.70;;;;;;4722832;29;87375;-87
2023/02/27 15:11:33;;;;;;;32.35;7.82;;;20.40;54.30;;;;;;4722982;29;87592;-87
2023/02/27 15:14:05;;;;;;;34.33;9.18;;;20.40;54.80;;;;;;4721776;29;88530;-87
2023/02/27 15:16:38;;;;;;;35.28;9.00;;;20.40;55.00;;;;;;4710544;29;90232;-86
2023/02/27 15:19:14;;;;;;;31.27;7.60;;;20.50;55.70;;;;;;4717017;29;88259;-85
2023/02/27 15:21:44;;;;;;;30.63;8.20;;;20.40;55.70;;;;;;4723733;29;87466;-86
2023/02/27 15:24:29;;;;;;;38.47;9.70;;;20.50;55.70;;;;;;4713033;29;93533;-87
2023/02/27 15:27:02;;;;;;;32.95;8.73;;;20.60;55.70;;;;;;4723392;29;87099;-87
2023/02/27 15:29:38;;;;;;;30.42;8.18;;;20.60;55.70;;;;;;4715978;29;87575;-87
2023/02/27 15:35:43;;;;;;;34.83;8.20;;;20.70;55.40;;;;;;4722221;29;87273;-89
2023/02/27 15:38:29;;;;;;;34.58;8.30;;;20.70;55.00;;;;;;4722388;29;88667;-86
2023/02/27 15:40:56;;;;;;;35.83;7.93;;;20.70;55.20;;;;;;4740273;29;87481;-87
2023/02/27 15:43:23;;;;;;;35.15;9.60;;;20.70;55.40;;;;;;4748172;29;90295;-87
2023/02/27 15:45:50;;;;;;;29.40;7.97;;;20.70;55.40;;;;;;4742634;29;89234;-86
2023/02/27 15:48:17;;;;;;;31.02;8.00;;;20.70;55.40;;;;;;4738184;29;92466;-85
2023/02/27 15:50:46;;;;;;;26.35;8.07;;;20.70;55.40;;;;;;4748836;29;87266;-85
2023/02/27 15:53:13;;;;;;;;;;;20.70;55.70;;;;;;4756610;29;89164;-88
2023/02/27 15:55:43;;;;;;;25.00;6.43;;;20.70;55.60;;;;;;4742960;29;87659;-87
2023/02/27 16:01:33;;;;;;;22.80;6.70;;;20.50;55.60;;;;;;4743089;29;87050;-86
2023/02/27 16:04:03;;;;;;;27.02;8.05;;;20.40;56.30;;;;;;4744369;29;88242;-87
2023/02/27 16:06:30;;;;;;;20.00;5.80;;;20.40;55.30;;;;;;4741927;29;92961;-87
2023/02/27 16:09:03;;;;;;;18.63;5.80;;;20.40;54.80;;;;;;4748019;29;88964;-87
2023/02/27 16:11:36;;;;;;;16.17;5.40;;;20.40;54.50;;;;;;4741432;29;88390;-86
2023/02/27 16:14:03;;;;;;;21.75;5.95;;;20.40;54.00;;;;;;4739934;29;87990;-87
2023/02/27 16:16:37;;;;;;;19.58;5.05;;;20.50;54.30;;;;;;4738916;29;90405;-85
2023/02/27 16:19:26;;;;;;;16.95;5.72;;;20.50;53.70;;;;;;4742796;29;88007;-86
2023/02/27 16:22:16;;;;;;;16.35;5.68;;;20.50;53.20;;;;;;4741289;29;87345;-85
2023/02/27 16:24:43;;;;;;;16.55;5.32;;;20.60;53.10;;;;;;4765808;29;91518;-85
2023/02/27 16:34:29;;;;;;;13.93;5.32;;;20.70;53.80;;;;;;4756004;29;87679;-87
2023/02/27 16:37:01;;;;;;;14.52;4.78;;;20.70;54.00;;;;;;4703693;29;88058;-87
2023/02/27 16:39:26;;;;;;;19.73;5.97;;;20.70;54.00;;;;;;4702524;29;93479;-86
2023/02/27 16:41:53;;;;;;;13.68;4.88;;;20.60;54.20;;;;;;4704782;29;87576;-86
2023/02/27 16:44:20;;;;;;;14.50;5.22;;;20.60;54.40;;;;;;4703080;29;87730;-87
2023/02/27 16:46:46;;;;;;;17.15;5.60;;;20.60;54.50;;;;;;4702876;29;87307;-86
2023/02/27 16:49:27;;;;;;;19.77;6.22;;;20.60;54.60;;;;;;4703473;29;88620;-86
2023/02/27 17:08:44;;;;;;;18.08;5.47;;;20.70;55.20;;;;;;4705303;29;88214;-86
2023/02/27 17:11:10;;;;;;;12.70;4.85;;;20.70;55.30;;;;;;4727560;29;87441;-87
2023/02/27 17:13:36;;;;;;;18.90;5.82;;;20.70;55.50;;;;;;4743896;29;88631;-85
2023/02/27 17:16:03;;;;;;;17.38;5.20;;;20.70;55.50;;;;;;4744919;29;88929;-85
2023/02/27 17:18:29;;;;;;;18.83;4.60;;;20.70;55.00;;;;;;4778359;29;87290;-84
2023/02/27 17:34:22;;;;;;;12.20;5.05;;;20.70;57.80;;;;;;4778708;29;87301;-84
2023/02/27 17:36:48;;;;;;;13.98;5.25;;;20.70;58.40;;;;;;4779820;29;89384;-84
2023/02/27 17:39:15;;;;;;;17.98;5.68;;;20.70;59.10;;;;;;4777363;29;88461;-84
2023/02/27 17:41:42;;;;;;;13.27;5.30;;;20.60;59.50;;;;;;4749963;29;87726;-84
2023/02/27 17:44:12;;;;;;;14.75;4.95;;;20.60;60.10;;;;;;4749791;29;86902;-85
2023/02/27 17:46:39;;;;;;;16.40;5.57;;;20.70;59.80;;;;;;4750315;29;89606;-84
2023/02/27 17:49:05;;;;;;;14.75;5.10;;;20.60;60.00;;;;;;4745528;29;87807;-85
2023/02/27 17:51:31;;;;;;;14.55;5.72;;;20.60;60.80;;;;;;4733883;29;87699;-85
2023/02/27 17:54:07;;;;;;;15.30;5.03;;;20.60;59.20;;;;;;4732783;29;86854;-85
2023/02/27 18:03:17;;;;;;;14.57;5.13;;;20.80;58.60;;;;;;4732883;29;87940;-86
2023/02/27 18:05:51;;;;;;;12.88;4.68;;;20.80;58.50;;;;;;4732032;29;87667;-84
2023/02/27 18:08:17;;;;;;;14.20;4.57;;;20.80;58.90;;;;;;4732156;29;89525;-84
2023/02/27 18:10:47;;;;;;;11.43;4.20;;;20.80;58.70;;;;;;4732607;29;87849;-85
2023/02/27 18:13:14;;;;;;;11.18;5.03;;;20.90;58.90;;;;;;4733220;29;86937;-86
2023/02/27 18:15:40;;;;;;;12.90;4.50;;;21.00;58.90;;;;;;4756957;29;88067;-85
2023/02/27 18:18:06;;;;;;;13.48;5.20;;;21.00;58.90;;;;;;4742410;29;91364;-85
2023/02/27 18:20:31;;;;;;;9.05;3.90;;;21.00;58.60;;;;;;4744517;29;88168;-85
2023/02/27 18:22:57;;;;;;;11.98;4.18;;;21.10;57.50;;;;;;4745200;29;87464;-84
2023/02/27 18:32:07;;;;;;;9.90;4.13;;;21.10;58.20;;;;;;4742868;29;87753;-85
2023/02/27 18:34:33;;;;;;;11.60;4.35;;;21.10;58.20;;;;;;4743729;29;86938;-86
2023/02/27 18:36:59;;;;;;;11.02;4.20;;;21.10;58.30;;;;;;4745141;29;87576;-85